Time;durP1;ratioP1;P1;durP2;ratioP2;P2;SDS_P1;SDS_P2;PMS_P1;PMS_P2;Temp;Humidity;BMP_temperature;BMP_pressure;BME280_temperature;BME280_humidity;BME280_pressure;Samples;Min_cycle;Max_cycle;Signal;HPM_P1;HPM_P2
2022/10/19 00:00:24;;;;;;;16.02;4.85;;;;;;;20.23;100.00;101427.44;2099646;28;20048;-74
2022/10/19 00:01:47;;;;;;;16.50;5.45;;;;;;;20.23;100.00;101430.13;2102319;28;20066;-74
2022/10/19 00:03:08;;;;;;;16.08;5.70;;;;;;;20.22;100.00;101417.59;2092962;28;20052;-73
2022/10/19 00:04:33;;;;;;;15.13;5.22;;;;;;;20.22;100.00;101424.75;2092292;28;20053;-73
2022/10/19 00:05:54;;;;;;;13.43;5.00;;;;;;;20.21;100.00;101417.66;2104723;28;20185;-73
2022/10/19 00:07:17;;;;;;;14.23;5.07;;;;;;;20.19;100.00;101416.78;2103795;28;20070;-73
2022/10/19 00:08:40;;;;;;;15.63;5.60;;;;;;;20.19;100.00;101416.78;2104193;28;20501;-74
2022/10/19 00:10:01;;;;;;;13.43;4.78;;;;;;;20.18;100.00;101415.88;2110137;28;20066;-74
2022/10/19 00:11:24;;;;;;;13.75;4.55;;;;;;;20.18;100.00;101409.63;2097345;28;20047;-74
2022/10/19 00:12:46;;;;;;;12.63;4.97;;;;;;;20.18;100.00;101415.00;2095614;28;20048;-74
2022/10/19 00:14:09;;;;;;;14.05;5.35;;;;;;;20.17;100.00;101405.19;2099282;28;20142;-74
2022/10/19 00:15:31;;;;;;;14.70;4.95;;;;;;;20.17;100.00;101405.19;2102019;28;20063;-73
2022/10/19 00:16:54;;;;;;;14.15;5.10;;;;;;;20.16;99.83;101406.06;2104846;28;20135;-73
2022/10/19 00:18:16;;;;;;;17.25;5.22;;;;;;;20.18;99.76;101410.53;2104498;28;20142;-73
2022/10/19 00:19:41;;;;;;;12.82;4.80;;;;;;;20.20;99.96;101403.34;2095631;28;20622;-74
2022/10/19 00:21:04;;;;;;;14.90;4.80;;;;;;;20.22;100.00;101403.31;2098705;28;20056;-73
2022/10/19 00:22:26;;;;;;;13.55;4.75;;;;;;;20.23;100.00;101399.72;2096394;28;20121;-73
2022/10/19 00:23:49;;;;;;;15.95;4.93;;;;;;;20.23;99.96;101399.72;2099074;28;20055;-73
2022/10/19 00:25:11;;;;;;;13.30;4.85;;;;;;;20.24;100.00;101401.50;2102251;28;20040;-73
2022/10/19 00:26:33;;;;;;;16.08;5.47;;;;;;;20.23;100.00;101399.72;2102118;28;20051;-73
2022/10/19 00:27:55;;;;;;;13.77;5.03;;;;;;;20.22;100.00;101400.63;2093629;28;20131;-73
2022/10/19 00:29:18;;;;;;;10.73;4.72;;;;;;;20.20;100.00;101399.78;2097549;28;20605;-73
2022/10/19 00:30:39;;;;;;;15.63;4.50;;;;;;;20.20;100.00;101389.06;2093471;28;20045;-73
2022/10/19 00:32:01;;;;;;;14.75;5.60;;;;;;;20.19;100.00;101400.69;2091004;28;20067;-74
2022/10/19 00:33:23;;;;;;;14.77;4.78;;;;;;;20.18;100.00;101393.56;2099233;28;20458;-74
2022/10/19 00:34:47;;;;;;;11.88;4.35;;;;;;;20.17;100.00;101394.44;2102002;28;20671;-73
2022/10/19 00:36:15;;;;;;;16.83;4.95;;;;;;;20.17;100.00;101394.44;2101381;28;20058;-74
2022/10/19 00:37:37;;;;;;;18.05;5.53;;;;;;;20.17;99.96;101397.13;2102707;28;20075;-74
2022/10/19 00:39:01;;;;;;;17.55;5.65;;;;;;;20.17;99.55;101384.63;2107718;28;20059;-73
2022/10/19 00:40:23;;;;;;;12.18;4.95;;;;;;;20.17;99.37;101387.28;2104651;28;20058;-73
2022/10/19 00:41:47;;;;;;;10.88;5.18;;;;;;;20.18;99.04;101383.72;2101921;28;20086;-74
2022/10/19 00:43:13;;;;;;;11.60;4.57;;;;;;;20.20;99.15;101383.69;2102458;28;20094;-74
2022/10/19 00:44:58;;;;;;;12.15;4.85;;;;;;;20.18;98.87;101378.34;2086647;28;20140;-74
2022/10/19 00:46:21;;;;;;;15.63;5.72;;;;;;;20.18;98.60;101381.03;2104262;28;20043;-74
2022/10/19 00:47:45;;;;;;;14.18;5.38;;;;;;;20.19;98.52;101387.28;2101755;28;20036;-74
2022/10/19 00:49:11;;;;;;;18.02;5.82;;;;;;;20.18;98.29;101375.66;2101770;28;20515;-74
2022/10/19 00:50:34;;;;;;;15.45;5.35;;;;;;;20.17;98.23;101381.94;2100298;28;20032;-73
2022/10/19 00:52:02;;;;;;;20.05;5.00;;;;;;;20.17;98.45;101378.38;2093734;28;20040;-74
2022/10/19 00:53:28;;;;;;;11.55;4.80;;;;;;;20.17;98.12;101378.38;2084302;28;20040;-73
2022/10/19 00:54:51;;;;;;;13.48;4.93;;;;;;;20.16;98.21;101376.59;2089580;28;20068;-74
2022/10/19 00:56:15;;;;;;;16.63;6.20;;;;;;;20.14;97.78;101371.28;2099437;28;20139;-74
2022/10/19 00:57:39;;;;;;;15.40;5.20;;;;;;;20.17;97.96;101375.69;2101751;28;20109;-73
2022/10/19 00:59:02;;;;;;;11.57;4.70;;;;;;;20.16;98.00;101374.78;2101428;28;20047;-74
2022/10/19 01:00:25;;;;;;;12.70;4.88;;;;;;;20.16;97.78;101369.44;2084631;28;20053;-74
2022/10/19 01:01:47;;;;;;;11.10;4.70;;;;;;;20.15;97.67;101359.59;2091064;28;20032;-73
2022/10/19 01:03:12;;;;;;;15.10;4.85;;;;;;;20.17;97.84;101367.63;2092926;28;20063;-73
2022/10/19 01:04:37;;;;;;;29.02;5.38;;;;;;;20.19;98.08;101363.16;2097838;28;20416;-73
2022/10/19 01:06:02;;;;;;;14.13;4.50;;;;;;;20.20;97.89;101362.25;2087217;28;20045;-73
2022/10/19 01:07:23;;;;;;;16.58;5.53;;;;;;;20.19;98.38;101361.34;2106727;28;20046;-73
2022/10/19 01:08:46;;;;;;;14.88;4.85;;;;;;;20.20;98.51;101362.25;2091537;28;20057;-73
2022/10/19 01:10:09;;;;;;;15.75;5.80;;;;;;;20.19;98.66;101353.31;2100790;28;20048;-73
2022/10/19 01:11:43;;;;;;;18.35;5.63;;;;;;;20.21;99.01;101354.19;2102892;28;20492;-74
2022/10/19 01:13:26;;;;;;;20.10;5.47;;;;;;;20.22;99.15;101353.25;2096870;28;20049;-74
2022/10/19 01:15:06;;;;;;;12.40;4.90;;;;;;;20.22;99.60;101347.00;2097895;28;20044;-73
2022/10/19 01:16:35;;;;;;;14.35;4.90;;;;;;;20.21;99.79;101350.63;2105241;28;20490;-73
2022/10/19 01:18:06;;;;;;;14.90;5.03;;;;;;;20.20;100.00;101346.16;2095653;28;20079;-73
2022/10/19 01:20:03;;;;;;;18.08;5.07;;;;;;;20.21;100.00;101345.25;2103047;28;20093;-74
2022/10/19 01:21:35;;;;;;;20.70;5.15;;;;;;;20.19;100.00;101339.91;2097929;28;20045;-74
2022/10/19 01:23:04;;;;;;;;;;;;;;;20.14;100.00;101352.50;2096537;28;20040;-73
2022/10/19 01:24:45;;;;;;;16.75;4.82;;;;;;;20.13;100.00;101337.31;2096032;28;19920;-74
2022/10/19 01:26:25;;;;;;;17.60;5.38;;;;;;;20.13;100.00;101348.03;2089125;28;20045;-73
2022/10/19 01:28:08;;;;;;;12.82;4.53;;;;;;;20.13;100.00;101342.69;2104607;28;20196;-73
2022/10/19 01:29:42;;;;;;;15.93;4.65;;;;;;;20.11;100.00;101347.16;2097763;28;20032;-74
2022/10/19 01:31:14;;;;;;;17.65;5.25;;;;;;;20.10;100.00;101349.88;2087315;28;20061;-74
2022/10/19 01:32:50;;;;;;;14.85;4.50;;;;;;;20.09;100.00;101342.72;2095069;28;20137;-73
2022/10/19 01:34:18;;;;;;;11.70;4.70;;;;;;;20.11;100.00;101349.84;2105315;28;20060;-73
2022/10/19 01:35:47;;;;;;;13.00;4.97;;;;;;;20.09;99.90;101342.72;2089530;28;20037;-73
2022/10/19 01:37:17;;;;;;;18.17;4.65;;;;;;;20.10;99.67;101337.34;2095131;28;20566;-73
2022/10/19 01:38:47;;;;;;;11.30;4.47;;;;;;;20.11;99.31;101343.59;2095239;28;20054;-75
2022/10/19 01:40:12;;;;;;;15.68;6.22;;;;;;;20.11;99.43;101333.75;2104514;28;20048;-74
2022/10/19 01:41:44;;;;;;;19.08;5.05;;;;;;;20.12;99.23;101337.34;2095314;28;20114;-74
2022/10/19 01:43:12;;;;;;;15.38;4.60;;;;;;;20.12;99.36;101335.53;2103315;28;20537;-74
2022/10/19 01:44:42;;;;;;;17.33;5.65;;;;;;;20.13;99.41;101340.00;2103367;28;20044;-73
2022/10/19 01:46:11;;;;;;;15.90;5.22;;;;;;;20.14;99.65;101346.25;2104646;28;20147;-73
2022/10/19 01:47:36;;;;;;;17.65;4.63;;;;;;;20.13;99.15;101336.44;2103656;28;20078;-73
2022/10/19 01:49:02;;;;;;;13.75;5.07;;;;;;;20.13;99.42;101328.38;2103461;28;20582;-73
2022/10/19 01:50:29;;;;;;;15.35;4.72;;;;;;;20.14;99.58;101331.06;2097474;28;20139;-73
2022/10/19 01:51:58;;;;;;;18.40;5.60;;;;;;;20.14;99.58;101331.06;2101974;28;20499;-73
2022/10/19 01:53:20;;;;;;;18.50;5.18;;;;;;;20.13;99.56;101323.03;2104016;28;20615;-73
2022/10/19 01:54:46;;;;;;;13.82;4.93;;;;;;;20.13;99.78;101326.59;2094897;28;20088;-73
2022/10/19 01:56:08;;;;;;;17.70;5.72;;;;;;;20.13;100.00;101331.97;2101380;28;20101;-73
2022/10/19 01:57:34;;;;;;;12.52;5.65;;;;;;;20.13;100.00;101325.69;2102747;28;20458;-73
2022/10/19 01:58:59;;;;;;;18.67;5.40;;;;;;;20.12;100.00;101327.50;2105967;28;20047;-73
2022/10/19 02:00:23;;;;;;;14.52;4.75;;;;;;;20.12;100.00;101323.94;2094713;28;20057;-74
2022/10/19 02:01:51;;;;;;;18.08;5.88;;;;;;;20.12;100.00;101329.28;2092907;28;20049;-74
2022/10/19 02:03:14;;;;;;;13.82;4.97;;;;;;;20.13;100.00;101323.03;2085226;28;20049;-74
2022/10/19 02:04:38;;;;;;;12.27;5.07;;;;;;;20.11;100.00;101319.47;2091155;28;20399;-73
2022/10/19 02:06:02;;;;;;;14.02;5.18;;;;;;;20.09;100.00;101332.88;2108243;28;20071;-73
2022/10/19 02:07:25;;;;;;;15.13;5.35;;;;;;;20.09;100.00;101318.59;2105854;28;20085;-73
2022/10/19 02:08:50;;;;;;;18.75;5.93;;;;;;;20.10;100.00;101326.63;2105260;28;20502;-73
2022/10/19 02:10:12;;;;;;;15.75;5.07;;;;;;;20.11;100.00;101332.88;2104779;28;20073;-73
2022/10/19 02:11:37;;;;;;;19.13;7.32;;;;;;;20.10;100.00;101326.63;2103072;28;20041;-73
2022/10/19 02:13:02;;;;;;;14.88;4.57;;;;;;;20.10;100.00;101320.38;2095101;28;20056;-73
2022/10/19 02:14:28;;;;;;;16.95;5.65;;;;;;;20.08;100.00;101331.16;2103125;28;20048;-74
2022/10/19 02:15:55;;;;;;;16.20;5.03;;;;;;;20.08;100.00;101328.47;2097353;28;20047;-74
2022/10/19 02:17:23;;;;;;;18.02;5.93;;;;;;;20.10;100.00;101325.75;2100841;28;20056;-74
2022/10/19 02:18:48;;;;;;;14.15;6.30;;;;;;;20.10;100.00;101331.09;2098476;28;20044;-74
2022/10/19 02:20:11;;;;;;;11.88;4.90;;;;;;;20.10;100.00;101323.94;2103062;28;20442;-73
2022/10/19 02:21:35;;;;;;;13.50;5.13;;;;;;;20.11;100.00;101325.72;2094851;28;20036;-73
2022/10/19 02:22:57;;;;;;;12.10;4.55;;;;;;;20.12;100.00;101330.19;2091991;28;20473;-73
2022/10/19 02:24:20;;;;;;;17.83;5.65;;;;;;;20.12;100.00;101329.28;2092084;28;20169;-73
2022/10/19 02:25:41;;;;;;;13.63;5.13;;;;;;;20.14;100.00;101331.06;2100096;28;20052;-73
2022/10/19 02:27:06;;;;;;;14.23;4.95;;;;;;;20.14;100.00;101328.38;2102461;28;20052;-72
2022/10/19 02:28:29;;;;;;;12.63;5.35;;;;;;;20.13;100.00;101331.97;2094096;28;20059;-72
2022/10/19 02:29:51;;;;;;;16.98;4.38;;;;;;;20.12;100.00;101327.50;2091146;28;20424;-72
2022/10/19 02:31:13;;;;;;;14.43;5.47;;;;;;;20.11;100.00;101324.84;2100071;28;20052;-72
2022/10/19 02:32:38;;;;;;;12.15;4.65;;;;;;;20.11;100.00;101338.25;2093957;28;20535;-71
2022/10/19 02:34:00;;;;;;;14.13;4.85;;;;;;;20.11;100.00;101330.19;2094884;28;20404;-74
2022/10/19 02:35:22;;;;;;;11.25;5.05;;;;;;;20.08;100.00;101333.81;2104656;28;20086;-74
2022/10/19 02:36:44;;;;;;;14.68;4.93;;;;;;;20.07;100.00;101328.47;2097244;28;20147;-74
2022/10/19 02:38:09;;;;;;;15.93;4.82;;;;;;;20.08;99.95;101330.25;2107267;28;20069;-74
2022/10/19 02:39:33;;;;;;;15.02;5.57;;;;;;;20.08;100.00;101328.47;2097114;28;20145;-74
2022/10/19 02:41:03;;;;;;;23.67;5.32;;;;;;;20.08;100.00;101332.94;2094462;28;20036;-74
2022/10/19 02:42:32;;;;;;;16.02;4.85;;;;;;;20.08;100.00;101331.16;2102275;28;20048;-74
2022/10/19 02:44:00;;;;;;;15.98;4.80;;;;;;;20.10;99.91;101339.13;2093897;28;20040;-74
2022/10/19 02:45:27;;;;;;;11.23;4.85;;;;;;;20.11;100.00;101336.44;2095087;28;20053;-74
2022/10/19 02:46:54;;;;;;;16.40;4.65;;;;;;;20.14;100.00;101331.06;2093128;28;20059;-73
2022/10/19 02:48:22;;;;;;;16.35;5.07;;;;;;;20.15;100.00;101340.00;2098013;28;20133;-74
2022/10/19 02:49:46;;;;;;;12.90;4.35;;;;;;;20.14;100.00;101331.06;2103619;28;20124;-73
2022/10/19 02:51:30;;;;;;;14.48;4.78;;;;;;;20.14;99.89;101333.72;2084710;28;20524;-74
2022/10/19 02:52:52;;;;;;;16.05;5.43;;;;;;;20.12;100.00;101334.66;2096286;28;20041;-74
2022/10/19 02:54:15;;;;;;;15.55;4.90;;;;;;;20.12;100.00;101338.22;2099562;28;20059;-73
2022/10/19 02:55:38;;;;;;;15.18;4.95;;;;;;;20.11;100.00;101331.09;2102674;28;20052;-73
2022/10/19 02:56:59;;;;;;;17.75;5.75;;;;;;;20.12;99.89;101330.19;2094088;28;20059;-73
2022/10/19 02:58:22;;;;;;;14.32;5.05;;;;;;;20.12;99.80;101335.53;2092226;28;20033;-74
2022/10/19 02:59:45;;;;;;;14.73;5.00;;;;;;;20.14;99.91;101330.16;2094591;28;20045;-74
2022/10/19 03:01:06;;;;;;;13.82;4.47;;;;;;;20.13;100.00;101336.44;2093298;28;20488;-73
2022/10/19 03:02:28;;;;;;;14.43;4.97;;;;;;;20.11;99.92;101333.75;2099631;28;20147;-73
2022/10/19 03:03:51;;;;;;;10.15;4.35;;;;;;;20.13;99.93;101331.06;2102495;28;20028;-74
2022/10/19 03:05:14;;;;;;;15.27;5.00;;;;;;;20.13;99.63;101325.69;2102273;28;20167;-74
2022/10/19 03:06:35;;;;;;;15.70;5.18;;;;;;;20.15;99.71;101331.94;2094133;28;20048;-73
2022/10/19 03:07:57;;;;;;;15.57;4.68;;;;;;;20.13;99.48;101331.06;2089182;28;20072;-73
2022/10/19 03:09:20;;;;;;;15.95;4.82;;;;;;;20.13;99.53;101331.97;2099617;28;20044;-74
2022/10/19 03:10:41;;;;;;;22.23;5.72;;;;;;;20.12;99.91;101329.28;2099916;28;20052;-74
2022/10/19 03:12:04;;;;;;;14.32;4.95;;;;;;;20.09;99.84;101318.59;2102666;28;20051;-74
2022/10/19 03:13:26;;;;;;;15.15;5.05;;;;;;;20.11;99.96;101322.16;2101734;28;20052;-74
2022/10/19 03:14:48;;;;;;;13.48;4.68;;;;;;;20.10;99.98;101326.63;2102369;28;20039;-73
2022/10/19 03:16:11;;;;;;;14.88;4.65;;;;;;;20.11;100.00;101332.88;2105444;28;20099;-73
2022/10/19 03:17:34;;;;;;;12.38;4.50;;;;;;;20.10;100.00;101331.09;2102000;28;20040;-74
2022/10/19 03:18:58;;;;;;;23.13;5.78;;;;;;;20.11;100.00;101332.88;2102645;28;20058;-73
2022/10/19 03:20:21;;;;;;;16.88;5.65;;;;;;;20.10;100.00;101331.97;2093880;28;20110;-74
2022/10/19 03:21:42;;;;;;;16.00;4.75;;;;;;;20.11;100.00;101335.56;2094155;28;20445;-74
2022/10/19 03:23:04;;;;;;;14.20;5.45;;;;;;;20.09;100.00;101334.69;2093917;28;20047;-73
2022/10/19 03:24:26;;;;;;;16.25;4.68;;;;;;;20.09;100.00;101334.69;2099834;28;20066;-73
2022/10/19 03:25:48;;;;;;;13.20;4.95;;;;;;;20.10;100.00;101333.78;2093993;28;20045;-73
2022/10/19 03:27:12;;;;;;;14.60;5.05;;;;;;;20.11;100.00;101324.84;2091997;28;20052;-73
2022/10/19 03:28:34;;;;;;;17.30;5.05;;;;;;;20.11;100.00;101333.75;2101168;28;20097;-73
2022/10/19 03:29:56;;;;;;;20.95;5.00;;;;;;;20.10;100.00;101323.06;2096307;28;20897;-73
2022/10/19 03:31:17;;;;;;;13.05;5.15;;;;;;;20.09;100.00;101316.81;2083533;28;20037;-74
2022/10/19 03:32:40;;;;;;;18.73;5.22;;;;;;;20.10;100.00;101328.41;2088827;28;20265;-74
2022/10/19 03:34:03;;;;;;;12.07;4.78;;;;;;;20.08;100.00;101333.81;2099707;28;20159;-74
2022/10/19 03:35:25;;;;;;;13.82;5.30;;;;;;;20.07;100.00;101324.00;2094254;28;20060;-74
2022/10/19 03:36:48;;;;;;;19.65;6.15;;;;;;;20.07;100.00;101321.31;2102031;28;20040;-73
2022/10/19 03:38:10;;;;;;;12.98;4.40;;;;;;;20.06;100.00;101324.03;2104132;28;20048;-73
2022/10/19 03:39:32;;;;;;;;;;;;;;;20.02;100.00;101324.97;2094357;28;20044;-74
2022/10/19 03:40:53;;;;;;;14.70;5.00;;;;;;;20.01;100.00;101329.47;2091528;28;19995;-74
2022/10/19 03:42:15;;;;;;;13.40;4.90;;;;;;;20.01;100.00;101323.19;2099442;28;20080;-73
2022/10/19 03:43:37;;;;;;;11.27;4.90;;;;;;;20.01;100.00;101331.25;2101426;28;20044;-74
2022/10/19 03:44:59;;;;;;;18.52;4.90;;;;;;;20.00;100.00;101326.78;2085621;28;20482;-73
2022/10/19 03:46:21;;;;;;;18.65;5.35;;;;;;;19.98;100.00;101320.56;2091280;28;20048;-73
2022/10/19 03:47:43;;;;;;;15.38;4.63;;;;;;;19.96;100.00;101319.69;2093501;28;20508;-74
2022/10/19 03:49:07;;;;;;;15.77;4.80;;;;;;;19.93;100.00;101331.34;2099479;28;20052;-73
2022/10/19 03:50:30;;;;;;;15.85;5.22;;;;;;;19.89;100.00;101321.56;2102122;28;20470;-73
2022/10/19 03:51:53;;;;;;;12.27;5.10;;;;;;;19.88;100.00;101319.81;2096647;28;20098;-74
2022/10/19 03:53:15;;;;;;;15.55;5.22;;;;;;;19.86;100.00;101327.88;2093932;28;20044;-73
2022/10/19 03:54:37;;;;;;;18.23;5.45;;;;;;;19.83;100.00;101325.22;2091209;28;20134;-74
2022/10/19 03:56:03;;;;;;;13.00;4.82;;;;;;;19.81;100.00;101328.84;2099465;28;20052;-74
2022/10/19 03:57:26;;;;;;;15.50;4.43;;;;;;;19.77;100.00;101325.28;2102077;28;20052;-74
2022/10/19 03:58:50;;;;;;;16.73;5.22;;;;;;;19.75;100.00;101324.44;2093330;28;20044;-74
2022/10/19 04:00:14;;;;;;;17.17;5.57;;;;;;;19.74;100.00;101324.47;2099633;28;20094;-74
2022/10/19 04:01:36;;;;;;;13.45;5.72;;;;;;;19.74;100.00;101321.78;2102252;28;20044;-74
2022/10/19 04:02:59;;;;;;;15.27;4.95;;;;;;;19.73;100.00;101322.69;2093518;28;20063;-74
2022/10/19 04:04:23;;;;;;;29.30;6.13;;;;;;;19.74;100.00;101327.16;2099176;28;20056;-73
2022/10/19 04:05:44;;;;;;;21.55;5.45;;;;;;;19.72;100.00;101326.25;2101945;28;20094;-73
2022/10/19 04:07:06;;;;;;;18.52;6.05;;;;;;;19.71;100.00;101327.16;2104632;28;20158;-74
2022/10/19 04:08:28;;;;;;;12.43;4.82;;;;;;;19.70;100.00;101325.38;2095629;28;20164;-74
2022/10/19 04:09:50;;;;;;;15.23;4.97;;;;;;;19.69;100.00;101324.50;2096369;28;20040;-74
2022/10/19 04:11:14;;;;;;;20.50;5.38;;;;;;;19.71;100.00;101321.81;2101574;28;20054;-74
2022/10/19 04:12:36;;;;;;;23.05;5.28;;;;;;;19.72;100.00;101324.47;2101568;28;20058;-73
2022/10/19 04:13:58;;;;;;;21.30;5.60;;;;;;;19.74;100.00;101322.66;2101896;28;20056;-74
2022/10/19 04:15:21;;;;;;;;;;;;;;;19.70;100.00;101328.97;2095673;28;20076;-74
2022/10/19 04:16:42;;;;;;;;;;;;;;;19.66;100.00;101319.19;2094215;28;19921;-73
2022/10/19 04:18:05;;;;;;;20.77;5.15;;;;;;;19.67;100.00;101318.28;2097457;28;20465;-74
2022/10/19 04:19:29;;;;;;;18.23;5.72;;;;;;;19.69;100.00;101320.97;2093912;28;20055;-74
2022/10/19 04:20:55;;;;;;;20.45;5.57;;;;;;;19.71;100.00;101311.97;2091298;28;20097;-73
2022/10/19 04:22:18;;;;;;;18.15;5.70;;;;;;;19.71;100.00;101320.03;2100415;28;20130;-74
2022/10/19 04:23:39;;;;;;;16.80;5.00;;;;;;;19.72;100.00;101321.78;2104516;28;20104;-73
2022/10/19 04:25:02;;;;;;;12.75;4.80;;;;;;;19.73;100.00;101318.22;2101711;28;20098;-73
2022/10/19 04:26:23;;;;;;;8.23;3.67;;;;;;;19.75;100.00;101326.25;2102026;28;20044;-74
2022/10/19 04:27:46;;;;;;;21.38;5.13;;;;;;;19.70;100.00;101318.25;2092632;28;20052;-74
2022/10/19 04:29:09;;;;;;;11.80;4.75;;;;;;;19.70;100.00;101325.38;2085615;28;20679;-73
2022/10/19 04:30:31;;;;;;;15.73;5.40;;;;;;;19.69;100.00;101324.50;2098008;28;20380;-74
2022/10/19 04:31:54;;;;;;;15.38;4.78;;;;;;;19.71;100.00;101324.50;2101919;28;20465;-74
2022/10/19 04:33:15;;;;;;;13.68;5.03;;;;;;;19.73;100.00;101330.72;2093674;28;20056;-73
2022/10/19 04:34:40;;;;;;;14.35;4.47;;;;;;;19.73;100.00;101333.41;2092310;28;20044;-73
2022/10/19 04:36:04;;;;;;;21.45;5.47;;;;;;;19.74;100.00;101329.81;2099009;28;20063;-74
2022/10/19 04:37:26;;;;;;;15.30;4.78;;;;;;;19.73;100.00;101328.03;2100300;28;20032;-74
2022/10/19 04:38:48;;;;;;;17.42;4.75;;;;;;;19.70;100.00;101328.97;2101234;28;20063;-74
2022/10/19 04:40:11;;;;;;;14.63;4.43;;;;;;;19.68;100.00;101327.22;2092095;28;20079;-73
2022/10/19 04:41:33;;;;;;;13.88;4.65;;;;;;;19.65;100.00;101322.78;2098225;28;20048;-73
2022/10/19 04:42:56;;;;;;;13.88;4.82;;;;;;;19.63;100.00;101326.38;2100027;28;20480;-73
2022/10/19 04:44:17;;;;;;;13.88;4.68;;;;;;;19.61;100.00;101328.19;2103175;28;20094;-74
2022/10/19 04:45:39;;;;;;;12.15;4.85;;;;;;;19.60;100.00;101324.63;2100058;28;20040;-74
2022/10/19 04:47:02;;;;;;;18.48;5.18;;;;;;;19.62;100.00;101330.88;2100476;28;20083;-73
2022/10/19 04:48:23;;;;;;;17.70;5.05;;;;;;;19.62;100.00;101327.31;2095307;28;20085;-74
2022/10/19 04:49:47;;;;;;;15.52;4.80;;;;;;;19.61;100.00;101328.19;2100984;28;20044;-74
2022/10/19 04:51:09;;;;;;;14.55;4.75;;;;;;;19.61;100.00;101331.78;2093335;28;20049;-74
2022/10/19 04:52:34;;;;;;;14.48;5.47;;;;;;;19.63;100.00;101335.28;2098461;28;20076;-74
2022/10/19 04:53:57;;;;;;;14.32;5.70;;;;;;;19.65;100.00;101325.47;2093059;28;20043;-74
2022/10/19 04:55:18;;;;;;;18.65;6.03;;;;;;;19.67;100.00;101334.38;2092563;28;20645;-74
2022/10/19 04:56:41;;;;;;;17.38;5.53;;;;;;;19.69;100.00;101332.53;2098010;28;20040;-74
2022/10/19 04:58:02;;;;;;;14.63;5.57;;;;;;;19.71;100.00;101336.09;2094651;28;20499;-74
2022/10/19 04:59:24;;;;;;;18.10;5.25;;;;;;;19.75;100.00;101334.28;2089983;28;20068;-74
2022/10/19 05:00:46;;;;;;;12.70;4.80;;;;;;;19.79;100.00;101338.69;2097468;28;20048;-74
2022/10/19 05:02:08;;;;;;;12.90;4.72;;;;;;;19.85;100.00;101338.59;2103546;28;20542;-74
2022/10/19 05:03:30;;;;;;;22.50;5.57;;;;;;;19.89;100.00;101334.97;2101011;28;20048;-73
2022/10/19 05:04:54;;;;;;;17.88;4.80;;;;;;;19.94;100.00;101343.84;2100087;28;20044;-74
2022/10/19 05:06:17;;;;;;;19.48;4.95;;;;;;;19.97;100.00;101340.22;2108566;28;20047;-74
2022/10/19 05:07:39;;;;;;;14.55;4.90;;;;;;;20.00;100.00;101345.56;2094144;28;20465;-74
2022/10/19 05:09:01;;;;;;;15.18;4.82;;;;;;;20.02;100.00;101346.44;2100148;28;20052;-74
2022/10/19 05:10:22;;;;;;;12.20;4.80;;;;;;;20.06;100.00;101342.78;2092127;28;20037;-73
2022/10/19 05:11:45;;;;;;;18.38;5.10;;;;;;;20.10;100.00;101339.13;2090517;28;20063;-74
2022/10/19 05:13:08;;;;;;;11.88;4.10;;;;;;;20.13;100.00;101342.69;2097508;28;20060;-74
2022/10/19 05:14:34;;;;;;;20.33;4.63;;;;;;;20.16;100.00;101341.72;2100896;28;20139;-74
2022/10/19 05:15:56;;;;;;;16.90;4.70;;;;;;;20.14;100.00;101347.13;2093416;28;20048;-73
2022/10/19 05:17:18;;;;;;;17.08;5.03;;;;;;;20.17;100.00;101348.88;2100445;28;20059;-74
2022/10/19 05:18:41;;;;;;;14.00;4.65;;;;;;;20.17;100.00;101351.56;2100175;28;20044;-74
2022/10/19 05:20:07;;;;;;;18.98;4.93;;;;;;;20.20;100.00;101351.53;2091313;28;20044;-74
2022/10/19 05:21:28;;;;;;;18.25;4.57;;;;;;;20.22;100.00;101344.31;2098599;28;20043;-74
2022/10/19 05:22:51;;;;;;;15.18;3.97;;;;;;;20.26;100.00;101341.59;2100857;28;20109;-74
2022/10/19 05:24:13;;;;;;;10.50;3.97;;;;;;;20.32;99.85;101339.72;2101118;28;20040;-74
2022/10/19 05:25:36;;;;;;;10.93;4.47;;;;;;;20.37;99.78;101346.81;2084498;28;20087;-74
2022/10/19 05:26:59;;;;;;;12.02;4.32;;;;;;;20.41;99.19;101342.31;2092047;28;20414;-74
2022/10/19 05:28:21;;;;;;;11.48;4.72;;;;;;;20.41;99.21;101337.84;2097264;28;20446;-73
2022/10/19 05:29:43;;;;;;;15.23;4.20;;;;;;;20.42;99.32;101336.91;2090515;28;20407;-74
2022/10/19 05:31:09;;;;;;;12.43;4.03;;;;;;;20.41;98.72;101335.16;2096401;28;20135;-74
2022/10/19 05:32:32;;;;;;;14.15;4.22;;;;;;;20.44;98.74;101337.75;2098555;28;20048;-74
2022/10/19 05:33:56;;;;;;;15.88;4.53;;;;;;;20.49;98.67;101338.56;2090197;28;20052;-74
2022/10/19 05:35:20;;;;;;;14.20;4.30;;;;;;;20.51;98.36;101334.09;2088692;28;20071;-74
2022/10/19 05:36:43;;;;;;;15.57;4.70;;;;;;;20.54;98.10;101339.41;2087947;28;20132;-74
2022/10/19 05:38:05;;;;;;;11.88;3.70;;;;;;;20.60;98.02;101338.41;2089591;28;20145;-74
2022/10/19 05:39:28;;;;;;;10.18;4.22;;;;;;;20.64;97.72;101348.19;2098140;28;20052;-74
2022/10/19 05:40:49;;;;;;;14.68;4.57;;;;;;;20.66;97.53;101341.88;2100689;28;20527;-74
2022/10/19 05:42:11;;;;;;;10.85;3.75;;;;;;;20.67;97.69;101345.47;2091594;28;20102;-74
2022/10/19 05:43:33;;;;;;;15.13;5.30;;;;;;;20.67;97.69;101343.66;2089668;28;20055;-74
2022/10/19 05:44:55;;;;;;;13.20;3.85;;;;;;;20.67;97.99;101350.81;2090795;28;20052;-74
2022/10/19 05:46:17;;;;;;;14.25;4.03;;;;;;;20.69;97.99;101348.97;2098364;28;20101;-74
2022/10/19 05:47:40;;;;;;;17.42;4.95;;;;;;;20.71;98.10;101352.53;2091493;28;20102;-74
2022/10/19 05:49:01;;;;;;;9.73;4.25;;;;;;;20.75;98.10;101353.34;2101003;28;20043;-74
2022/10/19 05:50:25;;;;;;;19.52;4.55;;;;;;;20.78;98.04;101343.47;2102385;28;20066;-74
2022/10/19 05:51:47;;;;;;;19.08;4.80;;;;;;;20.80;97.80;101347.03;2101294;28;20097;-74
2022/10/19 05:53:10;;;;;;;19.35;3.88;;;;;;;20.83;97.38;101348.75;2102808;28;20051;-74
2022/10/19 05:54:34;;;;;;;22.45;5.68;;;;;;;20.90;97.27;101345.94;2102243;28;20052;-74
2022/10/19 05:55:56;;;;;;;10.15;4.28;;;;;;;20.97;96.68;101354.78;2102548;28;20097;-74
2022/10/19 05:57:19;;;;;;;19.13;4.22;;;;;;;21.01;95.89;101349.31;2101191;28;20044;-74
2022/10/19 05:58:41;;;;;;;10.27;4.15;;;;;;;21.10;95.62;101345.59;2095989;28;20482;-74
2022/10/19 06:00:05;;;;;;;14.18;4.18;;;;;;;21.16;95.18;101347.31;2098999;28;20069;-74
2022/10/19 06:01:35;;;;;;;18.08;4.75;;;;;;;21.17;94.53;101362.50;2111518;28;20056;-74
2022/10/19 06:02:56;;;;;;;17.33;4.32;;;;;;;21.19;94.32;101358.00;2104704;28;20579;-74
2022/10/19 06:04:19;;;;;;;12.88;4.97;;;;;;;21.22;93.93;101360.63;2092520;28;20221;-74
2022/10/19 06:05:42;;;;;;;14.40;4.28;;;;;;;21.24;93.54;101358.78;2091502;28;20053;-74
2022/10/19 06:07:04;;;;;;;11.90;4.05;;;;;;;21.26;93.68;101357.88;2099696;28;20127;-74
2022/10/19 06:08:27;;;;;;;17.48;4.60;;;;;;;21.28;93.87;101353.31;2101723;28;20051;-74
2022/10/19 06:09:49;;;;;;;9.50;3.67;;;;;;;21.31;93.90;101355.09;2101884;28;20100;-74
2022/10/19 06:11:13;;;;;;;15.43;3.90;;;;;;;21.34;93.75;101358.56;2100641;28;20085;-74
2022/10/19 06:12:35;;;;;;;14.88;4.55;;;;;;;21.34;93.79;101360.38;2102356;28;20114;-75
2022/10/19 06:13:58;;;;;;;9.25;3.97;;;;;;;21.33;94.10;101359.50;2102382;28;20073;-74
2022/10/19 06:15:20;;;;;;;13.65;3.85;;;;;;;21.31;94.35;101361.34;2105578;28;20044;-74
2022/10/19 06:16:44;;;;;;;16.23;4.10;;;;;;;21.29;94.67;101365.84;2094820;28;20044;-74
2022/10/19 06:18:07;;;;;;;17.35;4.10;;;;;;;21.25;94.56;101366.81;2100274;28;20165;-74
2022/10/19 06:19:30;;;;;;;9.52;3.22;;;;;;;21.21;94.75;101365.09;2102909;28;20667;-74
2022/10/19 06:20:54;;;;;;;10.27;4.65;;;;;;;21.21;94.83;101364.19;2097423;28;20048;-74
2022/10/19 06:22:17;;;;;;;15.10;3.70;;;;;;;21.20;95.06;101363.31;2092122;28;20419;-74
2022/10/19 06:23:39;;;;;;;12.32;3.75;;;;;;;21.24;94.93;101364.16;2092149;28;20506;-74
2022/10/19 06:25:02;;;;;;;9.85;3.20;;;;;;;21.23;94.45;101367.75;2102717;28;20052;-74